createdAt,value
2019-03-23T00:00:36.232Z,97625.75
2019-03-23T00:03:09.105Z,97625.48
2019-03-23T00:05:41.927Z,97625.28
2019-03-23T00:08:14.426Z,97619.73
2019-03-23T00:10:47.018Z,97623.89
2019-03-23T00:13:19.684Z,97621.30
2019-03-23T00:15:52.275Z,97623.52
2019-03-23T00:18:24.804Z,97622.67
2019-03-23T00:20:57.365Z,97623.34
2019-03-23T00:23:29.863Z,97631.23
2019-03-23T00:26:02.542Z,97632.36
2019-03-23T00:28:35.135Z,97626.30
2019-03-23T00:31:08.146Z,97629.81
2019-03-23T00:33:40.977Z,97622.67
2019-03-23T00:36:13.495Z,97628.41
2019-03-23T00:38:46.344Z,97619.52
2019-03-23T00:41:18.862Z,97621.63
2019-03-23T00:43:51.452Z,97621.43
2019-03-23T00:46:23.992Z,97621.33
2019-03-23T00:48:56.588Z,97618.62
2019-03-23T00:51:29.120Z,97622.75
2019-03-23T00:54:01.645Z,97621.02
2019-03-23T00:56:34.327Z,97623.78
2019-03-23T00:59:06.857Z,97616.91
2019-03-23T01:01:39.448Z,97624.52
2019-03-23T01:04:12.042Z,97625.45
2019-03-23T01:06:52.193Z,97625.81
2019-03-23T01:09:19.354Z,97616.77
2019-03-23T01:11:51.891Z,97618.91
2019-03-23T01:14:24.856Z,97618.80
2019-03-23T01:16:57.389Z,97624.65
2019-03-23T01:19:29.915Z,97623.66
2019-03-23T01:22:02.539Z,97625.00
2019-03-23T01:24:35.140Z,97620.15
2019-03-23T01:27:07.673Z,97621.48
2019-03-23T01:29:41.146Z,97625.91
2019-03-23T01:32:13.696Z,97625.22
2019-03-23T01:34:46.481Z,97615.45
2019-03-23T01:37:19.074Z,97617.13
2019-03-23T01:39:51.866Z,97612.12
2019-03-23T01:42:24.384Z,97617.05
2019-03-23T01:44:56.889Z,97612.73
2019-03-23T01:47:29.488Z,97619.77
2019-03-23T01:50:02.100Z,97615.19
2019-03-23T01:52:35.701Z,97609.23
2019-03-23T01:55:08.780Z,97606.38
2019-03-23T01:57:41.564Z,97610.73
2019-03-23T02:00:14.818Z,97608.81
2019-03-23T02:02:47.775Z,97604.77
2019-03-23T02:05:20.402Z,97606.70
2019-03-23T02:07:52.904Z,97603.91
2019-03-23T02:10:25.399Z,97604.49
2019-03-23T02:12:59.009Z,97609.87
2019-03-23T02:15:31.672Z,97606.13
2019-03-23T02:18:04.354Z,97607.34
2019-03-23T02:20:37.288Z,97604.38
2019-03-23T02:23:09.814Z,97608.95
2019-03-23T02:25:42.595Z,97607.47
2019-03-23T02:28:15.143Z,97607.08
2019-03-23T02:30:47.786Z,97611.07
2019-03-23T02:33:20.311Z,97615.19
2019-03-23T02:35:53.386Z,97613.42
2019-03-23T02:38:26.044Z,97609.03
2019-03-23T02:40:58.562Z,97602.76
2019-03-23T02:43:31.353Z,97613.86
2019-03-23T02:46:04.132Z,97608.66
2019-03-23T02:48:36.762Z,97604.05
2019-03-23T02:51:09.290Z,97601.84
2019-03-23T02:53:41.902Z,97606.65
2019-03-23T02:56:14.435Z,97592.58
2019-03-23T02:58:47.267Z,97608.14
2019-03-23T03:01:19.780Z,97608.81
2019-03-23T03:03:52.320Z,97608.37
2019-03-23T03:06:25.103Z,97600.31
2019-03-23T03:08:57.705Z,97603.95
2019-03-23T03:11:30.215Z,97597.85
2019-03-23T03:14:02.745Z,97595.66
2019-03-23T03:16:35.516Z,97599.42
2019-03-23T03:19:08.149Z,97598.33
2019-03-23T03:21:40.745Z,97599.17
2019-03-23T03:24:13.266Z,97600.01
2019-03-23T03:26:45.869Z,97599.24
2019-03-23T03:29:18.427Z,97598.05
2019-03-23T03:31:50.989Z,97593.20
2019-03-23T03:34:23.624Z,97591.84
2019-03-23T03:36:56.513Z,97588.94
2019-03-23T03:39:29.047Z,97586.29
2019-03-23T03:42:01.998Z,97592.77
2019-03-23T03:44:34.694Z,97587.14
2019-03-23T03:47:07.376Z,97585.48
2019-03-23T03:49:39.915Z,97584.20
2019-03-23T03:52:12.573Z,97584.34
2019-03-23T03:54:45.128Z,97587.31
2019-03-23T03:57:18.061Z,97587.20
2019-03-23T03:59:50.681Z,97584.09
2019-03-23T04:02:23.375Z,97584.34
2019-03-23T04:04:55.914Z,97584.20
2019-03-23T04:07:28.458Z,97585.05
2019-03-23T04:10:01.018Z,97581.54
2019-03-23T04:12:33.564Z,97583.36
2019-03-23T04:15:07.221Z,97586.72
2019-03-23T04:17:40.174Z,97581.89
2019-03-23T04:20:13.290Z,97587.31
2019-03-23T04:22:45.842Z,97592.44
2019-03-23T04:25:18.521Z,97590.61
2019-03-23T04:27:51.157Z,97600.59
2019-03-23T04:30:23.792Z,97606.69
2019-03-23T04:32:56.344Z,97602.09
2019-03-23T04:35:29.339Z,97607.21
2019-03-23T04:38:01.893Z,97596.95
2019-03-23T04:40:34.436Z,97596.19
2019-03-23T04:43:07.122Z,97601.22
2019-03-23T04:45:39.916Z,97603.81
2019-03-23T04:48:12.493Z,97604.27
2019-03-23T04:50:45.209Z,97600.55
2019-03-23T04:53:17.955Z,97608.39
2019-03-23T04:55:50.605Z,97605.34
2019-03-23T04:58:23.183Z,97606.64
2019-03-23T05:00:55.874Z,97606.18
2019-03-23T05:03:28.688Z,97606.28
2019-03-23T05:06:01.234Z,97614.64
2019-03-23T05:08:33.914Z,97619.43
2019-03-23T05:11:06.783Z,97623.77
2019-03-23T05:13:39.349Z,97617.92
2019-03-23T05:16:12.478Z,97627.57
2019-03-23T05:18:45.037Z,97630.84
2019-03-23T05:21:17.680Z,97626.83
2019-03-23T05:23:50.315Z,97633.60
2019-03-23T05:26:23.354Z,97633.90
2019-03-23T05:28:56.356Z,97639.14
2019-03-23T05:31:28.929Z,97640.41
2019-03-23T05:34:01.491Z,97641.61
2019-03-23T05:36:34.170Z,97650.54
2019-03-23T05:39:08.207Z,97647.79
2019-03-23T05:41:40.763Z,97648.33
2019-03-23T05:44:13.499Z,97649.13
2019-03-23T05:46:46.050Z,97649.81
2019-03-23T05:49:18.624Z,97649.58
2019-03-23T05:51:51.170Z,97651.52
2019-03-23T05:54:23.749Z,97652.64
2019-03-23T05:56:56.666Z,97654.94
2019-03-23T05:59:29.225Z,97657.83
2019-03-23T06:02:02.009Z,97660.17
2019-03-23T06:04:34.584Z,97660.64
2019-03-23T06:07:07.547Z,97661.02
2019-03-23T06:09:40.153Z,97664.28
2019-03-23T06:12:12.785Z,97663.83
2019-03-23T06:14:45.422Z,97663.06
2019-03-23T06:17:18.080Z,97669.30
2019-03-23T06:19:50.629Z,97665.02
2019-03-23T06:22:23.255Z,97661.80
2019-03-23T06:24:55.811Z,97661.65
2019-03-23T06:27:28.613Z,97658.98
2019-03-23T06:30:01.188Z,97648.67
2019-03-23T06:32:33.826Z,97653.69
2019-03-23T06:35:06.826Z,97649.92
2019-03-23T06:37:39.534Z,97651.98
2019-03-23T06:40:12.622Z,97652.31
2019-03-23T06:42:45.976Z,97653.16
2019-03-23T06:45:19.181Z,97646.95
2019-03-23T06:47:51.731Z,97649.27
2019-03-23T06:50:24.282Z,97646.15
2019-03-23T06:52:56.831Z,97643.10
2019-03-23T06:55:29.559Z,97649.09
2019-03-23T06:58:02.581Z,97648.78
2019-03-23T07:00:35.316Z,97651.44
2019-03-23T07:03:07.977Z,97653.80
2019-03-23T07:05:40.568Z,97654.84
2019-03-23T07:08:13.483Z,97657.10
2019-03-23T07:10:46.198Z,97652.97
2019-03-23T07:13:18.746Z,97656.86
2019-03-23T07:15:51.345Z,97652.06
2019-03-23T07:18:23.959Z,97650.09
2019-03-23T07:20:56.610Z,97645.81
2019-03-23T07:23:29.177Z,97652.15
2019-03-23T07:26:01.805Z,97643.48
2019-03-23T07:28:34.444Z,97647.63
2019-03-23T07:31:07.148Z,97650.73
2019-03-23T07:33:39.706Z,97647.78
2019-03-23T07:36:13.467Z,97643.14
2019-03-23T07:38:46.240Z,97648.94
2019-03-23T07:41:19.262Z,97649.52
2019-03-23T07:43:51.798Z,97645.21
2019-03-23T07:46:24.968Z,97643.45
2019-03-23T07:48:57.546Z,97642.00
2019-03-23T07:51:30.226Z,97645.27
2019-03-23T07:54:03.286Z,97642.77
2019-03-23T07:56:35.999Z,97644.29
2019-03-23T07:59:08.951Z,97647.94
2019-03-23T08:01:41.621Z,97652.27
2019-03-23T08:04:14.508Z,97649.80
2019-03-23T08:06:47.201Z,97648.64
2019-03-23T08:09:21.683Z,97645.76
2019-03-23T08:11:54.839Z,97655.10
2019-03-23T08:14:27.579Z,97650.41
2019-03-23T08:17:00.501Z,97657.00
2019-03-23T08:19:33.308Z,97650.62
2019-03-23T08:22:06.219Z,97648.63
2019-03-23T08:24:38.885Z,97643.40
2019-03-23T08:27:12.199Z,97649.72
2019-03-23T08:29:44.787Z,97645.53
2019-03-23T08:32:17.331Z,97649.83
2019-03-23T08:34:50.308Z,97643.84
2019-03-23T08:37:22.868Z,97653.37
2019-03-23T08:39:55.440Z,97650.30
2019-03-23T08:42:27.978Z,97636.50
2019-03-23T08:45:00.550Z,97654.18
2019-03-23T08:47:33.185Z,97643.51
2019-03-23T08:50:06.243Z,97641.27
2019-03-23T08:52:38.906Z,97640.23
2019-03-23T08:55:13.450Z,97634.73
2019-03-23T08:57:46.009Z,97631.75
2019-03-23T09:00:18.732Z,97625.30
2019-03-23T09:02:51.312Z,97626.61
2019-03-23T09:05:23.965Z,97627.03
2019-03-23T09:07:56.689Z,97631.33
2019-03-23T09:10:29.540Z,97627.34
2019-03-23T09:13:02.168Z,97627.05
2019-03-23T09:15:34.928Z,97625.01
2019-03-23T09:18:07.748Z,97627.80
2019-03-23T09:20:40.482Z,97629.44
2019-03-23T09:23:13.070Z,97629.98
2019-03-23T09:25:45.906Z,97628.83
2019-03-23T09:28:18.445Z,97625.57
2019-03-23T09:30:51.008Z,97620.05
2019-03-23T09:33:23.666Z,97621.91
2019-03-23T09:35:56.328Z,97622.36
2019-03-23T09:38:29.045Z,97627.31
2019-03-23T09:41:01.703Z,97617.09
2019-03-23T09:43:34.524Z,97620.18
2019-03-23T09:46:07.207Z,97623.45
2019-03-23T09:48:40.117Z,97623.67
2019-03-23T09:51:12.875Z,97621.66
2019-03-23T09:53:45.522Z,97623.32
2019-03-23T09:56:18.084Z,97614.07
2019-03-23T09:58:50.631Z,97616.71
2019-03-23T10:01:23.251Z,97622.19
2019-03-23T10:03:55.834Z,97619.21
2019-03-23T10:06:28.409Z,97618.48
2019-03-23T10:09:01.213Z,97611.25
2019-03-23T10:11:35.219Z,97618.11
2019-03-23T10:14:07.895Z,97618.02
2019-03-23T10:16:40.608Z,97615.35
2019-03-23T10:19:13.330Z,97614.59
2019-03-23T10:21:46.532Z,97614.29
2019-03-23T10:24:19.428Z,97615.62
2019-03-23T10:26:52.361Z,97612.48
2019-03-23T10:29:25.085Z,97613.52
2019-03-23T10:31:57.821Z,97603.92
2019-03-23T10:34:30.697Z,97610.19
2019-03-23T10:37:03.831Z,97597.67
2019-03-23T10:39:36.573Z,97600.72
2019-03-23T10:42:11.604Z,97602.97
2019-03-23T10:44:44.559Z,97592.79
2019-03-23T10:47:17.315Z,97593.91
2019-03-23T10:49:51.387Z,97593.55
2019-03-23T10:52:24.121Z,97585.19
2019-03-23T10:54:56.830Z,97586.09
2019-03-23T10:57:29.476Z,97589.27
2019-03-23T11:00:02.163Z,97583.23
2019-03-23T11:02:34.875Z,97578.45
2019-03-23T11:05:08.522Z,97584.03
2019-03-23T11:07:41.234Z,97589.92
2019-03-23T11:10:14.431Z,97576.41
2019-03-23T11:12:47.186Z,97576.13
2019-03-23T11:15:20.589Z,97578.77
2019-03-23T11:17:53.186Z,97577.77
2019-03-23T11:20:25.814Z,97584.69
2019-03-23T11:22:58.717Z,97577.77
2019-03-23T11:25:31.424Z,97581.72
2019-03-23T11:28:04.305Z,97574.48
2019-03-23T11:30:36.982Z,97573.83
2019-03-23T11:33:09.581Z,97575.13
2019-03-23T11:35:42.262Z,97575.51
2019-03-23T11:38:14.842Z,97583.21
2019-03-23T11:40:52.932Z,97579.08
2019-03-23T11:43:21.745Z,97578.78
2019-03-23T11:45:54.384Z,97574.57
2019-03-23T11:48:27.028Z,97580.25
2019-03-23T11:50:59.592Z,97582.41
2019-03-23T11:53:32.261Z,97570.56
2019-03-23T11:56:05.098Z,97566.42
2019-03-23T11:58:37.757Z,97573.86
2019-03-23T12:01:11.093Z,97575.51
2019-03-23T12:03:43.759Z,97570.26
2019-03-23T12:06:17.117Z,97572.78
2019-03-23T12:08:49.768Z,97571.15
2019-03-23T12:11:22.430Z,97560.10
2019-03-23T12:13:55.155Z,97564.50
2019-03-23T12:16:27.826Z,97556.00
2019-03-23T12:19:00.777Z,97558.67
2019-03-23T12:21:33.574Z,97554.27
2019-03-23T12:24:06.322Z,97554.63
2019-03-23T12:26:39.075Z,97555.13
2019-03-23T12:29:12.061Z,97551.95
2019-03-23T12:31:44.648Z,97543.25
2019-03-23T12:34:17.246Z,97547.75
2019-03-23T12:36:50.061Z,97544.05
2019-03-23T12:39:22.740Z,97544.55
2019-03-23T12:41:55.508Z,97546.20
2019-03-23T12:44:28.378Z,97541.92
2019-03-23T12:47:01.261Z,97545.53
2019-03-23T12:49:33.948Z,97538.14
2019-03-23T12:52:07.076Z,97541.59
2019-03-23T12:54:40.113Z,97536.11
2019-03-23T12:57:12.919Z,97533.58
2019-03-23T12:59:45.643Z,97536.06
2019-03-23T13:02:18.363Z,97531.77
2019-03-23T13:04:51.500Z,97524.45
2019-03-23T13:07:24.220Z,97523.50
2019-03-23T13:09:56.853Z,97530.95
2019-03-23T13:12:29.595Z,97524.89
2019-03-23T13:15:03.259Z,97524.55
2019-03-23T13:17:36.350Z,97524.77
2019-03-23T13:20:10.562Z,97520.63
2019-03-23T13:22:43.190Z,97521.36
2019-03-23T13:25:15.885Z,97514.55
2019-03-23T13:27:48.640Z,97515.53
2019-03-23T13:30:21.384Z,97508.73
2019-03-23T13:32:53.980Z,97511.06
2019-03-23T13:35:26.675Z,97510.31
2019-03-23T13:37:59.354Z,97505.59
2019-03-23T13:40:32.027Z,97502.36
2019-03-23T13:43:04.690Z,97504.24
2019-03-23T13:45:42.642Z,97499.05
2019-03-23T13:48:12.401Z,97492.89
2019-03-23T13:50:45.124Z,97493.69
2019-03-23T13:53:18.093Z,97476.38
2019-03-23T13:55:51.002Z,97486.86
2019-03-23T13:58:23.580Z,97488.64
2019-03-23T14:00:56.311Z,97483.95
2019-03-23T14:03:28.981Z,97487.35
2019-03-23T14:06:01.730Z,97486.08
2019-03-23T14:08:34.660Z,97484.97
2019-03-23T14:11:07.401Z,97473.31
2019-03-23T14:13:40.015Z,97474.16
2019-03-23T14:16:13.123Z,97474.86
2019-03-23T14:18:45.990Z,97472.94
2019-03-23T14:21:18.738Z,97473.98
2019-03-23T14:23:51.688Z,97459.56
2019-03-23T14:26:24.462Z,97468.14
2019-03-23T14:28:57.082Z,97465.24
2019-03-23T14:31:29.708Z,97466.03
2019-03-23T14:34:02.757Z,97464.78
2019-03-23T14:36:35.435Z,97465.72
2019-03-23T14:39:09.200Z,97460.10
2019-03-23T14:41:41.844Z,97451.66
2019-03-23T14:44:14.410Z,97452.17
2019-03-23T14:46:47.443Z,97452.89
2019-03-23T14:49:20.145Z,97451.02
2019-03-23T14:51:53.061Z,97451.86
2019-03-23T14:54:26.435Z,97448.88
2019-03-23T14:56:59.227Z,97443.11
2019-03-23T14:59:31.968Z,97445.73
2019-03-23T15:02:04.783Z,97450.83
2019-03-23T15:04:37.759Z,97445.27
2019-03-23T15:07:11.691Z,97453.10
2019-03-23T15:09:44.428Z,97449.97
2019-03-23T15:12:17.117Z,97451.03
2019-03-23T15:14:49.744Z,97452.85
2019-03-23T15:17:22.504Z,97455.20
2019-03-23T15:19:55.793Z,97447.11
2019-03-23T15:22:28.575Z,97445.77
2019-03-23T15:25:01.315Z,97451.13
2019-03-23T15:27:34.052Z,97455.94
2019-03-23T15:30:07.873Z,97444.95
2019-03-23T15:32:40.740Z,97445.34
2019-03-23T15:35:13.615Z,97443.27
2019-03-23T15:37:46.382Z,97448.40
2019-03-23T15:40:19.202Z,97447.34
2019-03-23T15:42:52.061Z,97445.57
2019-03-23T15:45:25.353Z,97441.12
2019-03-23T15:47:58.142Z,97439.16
2019-03-23T15:50:30.900Z,97437.24
2019-03-23T15:53:03.723Z,97439.94
2019-03-23T15:55:37.018Z,97435.92
2019-03-23T15:58:09.767Z,97443.31
2019-03-23T16:00:42.360Z,97443.02
2019-03-23T16:03:15.976Z,97443.13
2019-03-23T16:05:48.664Z,97437.66
2019-03-23T16:08:21.338Z,97434.48
2019-03-23T16:10:54.138Z,97436.05
2019-03-23T16:13:26.889Z,97435.81
2019-03-23T16:15:59.676Z,97443.43
2019-03-23T16:18:32.366Z,97441.16
2019-03-23T16:21:05.255Z,97443.33
2019-03-23T16:23:37.894Z,97442.97
2019-03-23T16:26:12.013Z,97448.13
2019-03-23T16:28:44.786Z,97438.51
2019-03-23T16:31:17.361Z,97447.95
2019-03-23T16:33:49.936Z,97440.37
2019-03-23T16:36:22.630Z,97444.63
2019-03-23T16:38:55.508Z,97448.49
2019-03-23T16:41:28.401Z,97446.83
2019-03-23T16:44:01.128Z,97449.00
2019-03-23T16:46:34.746Z,97447.67
2019-03-23T16:49:08.590Z,97449.66
2019-03-23T16:51:41.563Z,97456.33
2019-03-23T16:54:14.139Z,97453.23
2019-03-23T16:56:47.327Z,97456.42
2019-03-23T16:59:20.664Z,97449.09
2019-03-23T17:01:57.018Z,97452.59
2019-03-23T17:04:30.429Z,97452.84
2019-03-23T17:07:03.939Z,97451.97
2019-03-23T17:09:37.295Z,97450.49
2019-03-23T17:12:10.262Z,97449.34
2019-03-23T17:14:43.270Z,97452.38
2019-03-23T17:17:16.230Z,97454.64
2019-03-23T17:19:49.591Z,97462.11
2019-03-23T17:22:22.598Z,97461.39
2019-03-23T17:24:55.640Z,97457.81
2019-03-23T17:27:28.709Z,97458.11
2019-03-23T17:30:01.767Z,97456.39
2019-03-23T17:32:35.954Z,97458.55
2019-03-23T17:35:09.115Z,97455.65
2019-03-23T17:37:43.029Z,97469.41
2019-03-23T17:40:16.351Z,97467.57
2019-03-23T17:42:51.177Z,97465.75
2019-03-23T17:45:24.600Z,97478.09
2019-03-23T17:47:57.980Z,97479.88
2019-03-23T17:50:31.240Z,97485.60
2019-03-23T17:53:04.901Z,97490.11
2019-03-23T17:55:38.375Z,97491.02
2019-03-23T17:58:12.948Z,97495.48
2019-03-23T18:00:48.840Z,97500.20
2019-03-23T18:03:22.196Z,97498.14
2019-03-23T18:05:55.510Z,97500.79
2019-03-23T18:08:28.711Z,97507.32
2019-03-23T18:11:04.182Z,97504.14
2019-03-23T18:13:37.328Z,97508.55
2019-03-23T18:16:10.885Z,97510.50
2019-03-23T18:18:46.524Z,97513.08
2019-03-23T18:21:20.353Z,97513.45
2019-03-23T18:23:54.008Z,97513.09
2019-03-23T18:26:30.941Z,97517.31
2019-03-23T18:29:08.417Z,97521.03
2019-03-23T18:31:49.745Z,97525.31
2019-03-23T18:34:24.201Z,97533.22
2019-03-23T18:36:58.216Z,97538.82
2019-03-23T18:39:31.365Z,97541.56
2019-03-23T18:42:04.844Z,97536.15
2019-03-23T18:44:38.315Z,97540.28
2019-03-23T18:47:12.487Z,97543.36
2019-03-23T18:49:45.763Z,97547.20
2019-03-23T18:52:21.626Z,97549.09
2019-03-23T18:55:02.712Z,97553.84
2019-03-23T18:57:39.044Z,97551.70
2019-03-23T19:00:24.593Z,97553.38
2019-03-23T19:02:59.379Z,97555.80
2019-03-23T19:06:14.402Z,97561.41
2019-03-23T19:08:47.715Z,97560.30
2019-03-23T19:11:34.157Z,97560.86
2019-03-23T19:14:09.812Z,97554.92
2019-03-23T19:16:47.982Z,97564.96
2019-03-23T19:19:22.899Z,97568.48
2019-03-23T19:21:56.973Z,97562.36
2019-03-23T19:24:31.122Z,97560.28
2019-03-23T19:27:05.064Z,97560.89
2019-03-23T19:29:45.730Z,97562.80
2019-03-23T19:32:20.867Z,97555.97
2019-03-23T19:34:53.874Z,97562.20
2019-03-23T19:37:26.716Z,97563.27
2019-03-23T19:39:59.577Z,97547.88
2019-03-23T19:42:32.376Z,97554.87
2019-03-23T19:45:05.558Z,97555.09
2019-03-23T19:47:38.798Z,97561.18
2019-03-23T19:50:12.631Z,97557.64
2019-03-23T19:52:45.424Z,97559.61
2019-03-23T19:55:18.126Z,97562.76
2019-03-23T19:57:54.480Z,97563.31
2019-03-23T20:00:26.862Z,97563.19
2019-03-23T20:02:59.882Z,97560.36
2019-03-23T20:05:32.738Z,97555.88
2019-03-23T20:08:05.460Z,97561.69
2019-03-23T20:10:38.326Z,97559.41
2019-03-23T20:13:11.240Z,97558.64
2019-03-23T20:15:44.092Z,97557.50
2019-03-23T20:18:16.880Z,97551.61
2019-03-23T20:20:50.542Z,97554.02
2019-03-23T20:23:23.477Z,97557.27
2019-03-23T20:25:56.211Z,97559.27
2019-03-23T20:28:28.998Z,97565.12
2019-03-23T20:31:01.893Z,97565.40
2019-03-23T20:33:34.619Z,97569.95
2019-03-23T20:36:07.394Z,97574.03
2019-03-23T20:38:40.191Z,97571.11
2019-03-23T20:41:13.003Z,97577.83
2019-03-23T20:43:45.750Z,97573.41
2019-03-23T20:46:18.537Z,97578.46
2019-03-23T20:48:51.658Z,97580.27
2019-03-23T20:51:24.359Z,97580.05
2019-03-23T20:53:57.182Z,97585.98
2019-03-23T20:56:30.344Z,97581.34
2019-03-23T20:59:03.113Z,97578.02
2019-03-23T21:01:35.935Z,97578.41
2019-03-23T21:04:08.997Z,97582.92
2019-03-23T21:06:41.809Z,97576.48
2019-03-23T21:09:14.682Z,97574.20
2019-03-23T21:11:47.448Z,97565.51
2019-03-23T21:14:20.720Z,97567.64
2019-03-23T21:16:53.540Z,97565.86
2019-03-23T21:19:26.247Z,97575.70
2019-03-23T21:21:59.041Z,97570.47
2019-03-23T21:24:31.755Z,97574.64
2019-03-23T21:27:04.497Z,97573.03
2019-03-23T21:29:37.693Z,97570.88
2019-03-23T21:32:12.765Z,97569.52
2019-03-23T21:34:45.485Z,97564.27
2019-03-23T21:37:18.819Z,97567.41
2019-03-23T21:39:51.535Z,97566.66
2019-03-23T21:42:24.223Z,97559.64
2019-03-23T21:44:56.873Z,97554.86
2019-03-23T21:47:29.488Z,97557.86
2019-03-23T21:50:02.139Z,97560.27
2019-03-23T21:52:34.832Z,97559.41
2019-03-23T21:55:08.224Z,97557.70
2019-03-23T21:57:41.172Z,97557.00
2019-03-23T22:00:26.093Z,97558.79
2019-03-23T22:02:58.684Z,97562.13
2019-03-23T22:05:31.473Z,97555.13
2019-03-23T22:08:04.266Z,97552.98
2019-03-23T22:10:37.000Z,97556.64
2019-03-23T22:13:10.643Z,97554.98
2019-03-23T22:15:43.362Z,97558.44
2019-03-23T22:18:16.000Z,97546.33
2019-03-23T22:20:48.583Z,97549.58
2019-03-23T22:23:21.142Z,97550.38
2019-03-23T22:25:53.780Z,97546.26
2019-03-23T22:28:26.409Z,97543.64
2019-03-23T22:30:58.951Z,97543.64
2019-03-23T22:33:31.510Z,97543.24
2019-03-23T22:36:05.122Z,97537.92
2019-03-23T22:38:37.765Z,97537.61
2019-03-23T22:41:10.420Z,97532.55
2019-03-23T22:43:42.961Z,97534.59
2019-03-23T22:46:16.520Z,97530.88
2019-03-23T22:48:49.086Z,97532.87
2019-03-23T22:51:21.651Z,97531.77
2019-03-23T22:53:55.410Z,97529.53
2019-03-23T22:56:28.489Z,97532.84
2019-03-23T22:59:01.042Z,97527.41
2019-03-23T23:01:33.764Z,97512.66
2019-03-23T23:04:06.472Z,97510.23
2019-03-23T23:06:39.183Z,97508.91
2019-03-23T23:09:12.553Z,97508.78
2019-03-23T23:11:45.175Z,97504.73
2019-03-23T23:14:19.334Z,97502.16
2019-03-23T23:16:51.969Z,97497.70
2019-03-23T23:19:24.617Z,97499.06
2019-03-23T23:21:57.248Z,97499.77
2019-03-23T23:24:29.930Z,97494.60
2019-03-23T23:27:02.485Z,97499.72
2019-03-23T23:29:35.189Z,97498.12
2019-03-23T23:32:07.882Z,97493.20
2019-03-23T23:34:40.797Z,97496.50
2019-03-23T23:37:13.337Z,97495.56
2019-03-23T23:39:45.924Z,97501.45
2019-03-23T23:42:19.121Z,97498.23
2019-03-23T23:44:51.754Z,97493.63
2019-03-23T23:47:24.374Z,97496.32
2019-03-23T23:49:56.923Z,97499.56
2019-03-23T23:52:29.623Z,97496.00
2019-03-23T23:55:02.518Z,97498.25
2019-03-23T23:57:35.152Z,97493.47
